createdAt,value
2023-01-09T00:00:35.458Z,55.54
2023-01-09T00:03:05.643Z,55.54
2023-01-09T00:05:35.918Z,55.38
2023-01-09T00:08:08.662Z,55.46
2023-01-09T00:10:40.305Z,55.56
2023-01-09T00:13:12.555Z,55.52
2023-01-09T00:15:43.862Z,55.59
2023-01-09T00:18:14.016Z,55.49
2023-01-09T00:20:44.035Z,55.34
2023-01-09T00:23:13.990Z,55.51
2023-01-09T00:25:43.885Z,55.39
2023-01-09T00:28:13.780Z,55.63
2023-01-09T00:30:44.769Z,55.45
2023-01-09T00:33:15.482Z,55.36
2023-01-09T00:35:45.532Z,55.56
2023-01-09T00:38:15.353Z,55.47
2023-01-09T00:40:45.296Z,55.46
2023-01-09T00:43:15.798Z,55.36
2023-01-09T00:45:46.194Z,55.36
2023-01-09T00:48:32.663Z,55.45
2023-01-09T00:51:03.189Z,55.39
2023-01-09T00:53:35.747Z,55.75
2023-01-09T00:56:09.891Z,55.34
2023-01-09T00:58:40.291Z,55.18
2023-01-09T01:01:10.534Z,55.35
2023-01-09T01:03:40.769Z,55.58
2023-01-09T01:06:29.351Z,55.40
2023-01-09T01:08:59.645Z,55.30
2023-01-09T01:11:29.707Z,55.38
2023-01-09T01:14:00.802Z,55.29
2023-01-09T01:16:30.876Z,55.09
2023-01-09T01:19:00.735Z,55.36
2023-01-09T01:21:30.822Z,55.08
2023-01-09T01:24:00.693Z,55.04
2023-01-09T01:26:30.740Z,55.21
2023-01-09T01:29:01.900Z,54.96
2023-01-09T01:31:31.896Z,55.21
2023-01-09T01:34:01.758Z,55.20
2023-01-09T01:36:31.644Z,55.30
2023-01-09T01:39:01.520Z,55.29
2023-01-09T01:41:37.072Z,55.00
2023-01-09T01:44:10.000Z,55.30
2023-01-09T01:46:40.263Z,55.10
2023-01-09T01:49:16.586Z,55.14
2023-01-09T01:51:53.898Z,55.05
2023-01-09T01:54:28.427Z,54.89
2023-01-09T01:57:01.012Z,55.02
2023-01-09T01:59:52.292Z,54.74
2023-01-09T02:02:26.315Z,55.13
2023-01-09T02:04:58.594Z,55.30
2023-01-09T02:07:28.701Z,55.09
2023-01-09T02:09:59.855Z,55.17
2023-01-09T02:12:30.777Z,54.91
2023-01-09T02:15:17.248Z,54.90
2023-01-09T02:18:11.670Z,55.05
2023-01-09T02:21:03.783Z,55.93
2023-01-09T02:23:39.950Z,55.07
2023-01-09T02:26:18.954Z,55.15
2023-01-09T02:29:11.903Z,55.42
2023-01-09T02:32:10.996Z,55.07
2023-01-09T02:35:09.809Z,55.08
2023-01-09T02:37:48.912Z,54.97
2023-01-09T02:40:26.666Z,55.01
2023-01-09T02:43:00.708Z,54.69
2023-01-09T02:45:30.870Z,54.51
2023-01-09T02:48:00.918Z,54.73
2023-01-09T02:50:47.514Z,54.63
2023-01-09T02:53:57.422Z,54.63
2023-01-09T02:56:38.169Z,54.27
2023-01-09T02:59:26.602Z,54.29
2023-01-09T03:02:16.851Z,54.33
2023-01-09T03:05:21.904Z,54.01
2023-01-09T03:08:02.079Z,54.37
2023-01-09T03:10:43.943Z,54.17
2023-01-09T03:13:18.876Z,54.14
2023-01-09T03:15:52.916Z,54.00
2023-01-09T03:18:27.385Z,54.08
2023-01-09T03:20:58.107Z,53.72
2023-01-09T03:23:28.315Z,53.71
2023-01-09T03:25:58.366Z,53.87
2023-01-09T03:28:31.182Z,53.71
2023-01-09T03:31:01.242Z,53.75
2023-01-09T03:33:31.217Z,53.76
2023-01-09T03:36:01.177Z,53.82
2023-01-09T03:38:31.132Z,53.61
2023-01-09T03:41:01.126Z,53.58
2023-01-09T03:43:31.191Z,53.48
2023-01-09T03:46:01.790Z,53.39
2023-01-09T03:48:31.937Z,53.29
2023-01-09T03:51:01.847Z,53.18
2023-01-09T03:53:31.996Z,52.96
2023-01-09T03:56:02.273Z,52.33
2023-01-09T03:58:32.232Z,52.02
2023-01-09T04:01:07.131Z,52.28
2023-01-09T04:03:40.281Z,52.01
2023-01-09T04:06:10.453Z,52.22
2023-01-09T04:08:40.311Z,51.92
2023-01-09T04:11:12.370Z,52.22
2023-01-09T04:13:42.561Z,52.50
2023-01-09T04:16:12.673Z,52.25
2023-01-09T04:18:42.559Z,53.55
2023-01-09T04:21:12.559Z,52.65
2023-01-09T04:23:42.648Z,52.14
2023-01-09T04:26:12.537Z,52.68
2023-01-09T04:28:42.717Z,53.17
2023-01-09T04:31:12.750Z,53.27
2023-01-09T04:33:42.843Z,53.78
2023-01-09T04:36:12.859Z,53.59
2023-01-09T04:38:42.908Z,53.14
2023-01-09T04:41:12.897Z,52.71
2023-01-09T04:43:44.405Z,53.14
2023-01-09T04:46:14.468Z,52.45
2023-01-09T04:48:44.401Z,51.79
2023-01-09T04:51:14.245Z,52.15
2023-01-09T04:53:44.119Z,51.94
2023-01-09T04:56:14.154Z,52.33
2023-01-09T04:58:44.297Z,51.71
2023-01-09T05:01:14.508Z,52.43
2023-01-09T05:03:44.467Z,52.73
2023-01-09T05:06:14.629Z,52.08
2023-01-09T05:08:44.713Z,52.41
2023-01-09T05:11:14.600Z,53.63
2023-01-09T05:13:44.482Z,53.23
2023-01-09T05:16:14.604Z,52.52
2023-01-09T05:18:44.984Z,52.94
2023-01-09T05:21:15.475Z,53.72
2023-01-09T05:23:45.565Z,53.57
2023-01-09T05:26:15.763Z,53.63
2023-01-09T05:28:45.917Z,52.77
2023-01-09T05:31:15.845Z,52.07
2023-01-09T05:33:45.989Z,52.03
2023-01-09T05:36:16.097Z,52.07
2023-01-09T05:38:46.195Z,52.17
2023-01-09T05:41:16.082Z,51.93
2023-01-09T05:43:46.008Z,52.41
2023-01-09T05:46:15.961Z,53.15
2023-01-09T05:48:47.142Z,52.86
2023-01-09T05:51:17.444Z,53.06
2023-01-09T05:53:47.571Z,52.98
2023-01-09T05:56:17.645Z,53.00
2023-01-09T05:58:47.900Z,53.12
2023-01-09T06:01:18.105Z,52.51
2023-01-09T06:03:48.208Z,53.17
2023-01-09T06:06:18.218Z,52.30
2023-01-09T06:08:48.094Z,52.31
2023-01-09T06:11:17.974Z,52.87
2023-01-09T06:13:48.003Z,52.88
2023-01-09T06:16:17.968Z,52.54
2023-01-09T06:18:48.523Z,52.27
2023-01-09T06:21:18.688Z,52.38
2023-01-09T06:23:49.178Z,52.72
2023-01-09T06:26:19.691Z,52.61
2023-01-09T06:28:49.743Z,52.55
2023-01-09T06:31:19.791Z,52.61
2023-01-09T06:33:49.892Z,52.76
2023-01-09T06:36:22.240Z,52.76
2023-01-09T06:38:52.549Z,53.01
2023-01-09T06:41:22.487Z,52.82
2023-01-09T06:43:52.398Z,52.99
2023-01-09T06:46:22.255Z,53.12
2023-01-09T06:48:52.143Z,53.14
2023-01-09T06:51:22.124Z,53.01
2023-01-09T06:53:54.085Z,53.19
2023-01-09T06:56:24.313Z,52.99
2023-01-09T06:58:54.756Z,52.72
2023-01-09T07:01:24.792Z,52.56
2023-01-09T07:03:55.116Z,52.73
2023-01-09T07:06:25.570Z,52.61
2023-01-09T07:08:55.687Z,52.59
2023-01-09T07:11:25.913Z,52.63
2023-01-09T07:13:56.059Z,52.49
2023-01-09T07:16:25.882Z,52.93
2023-01-09T07:18:57.002Z,52.63
2023-01-09T07:21:27.129Z,52.97
2023-01-09T07:23:57.035Z,52.95
2023-01-09T07:26:26.879Z,52.69
2023-01-09T07:28:56.865Z,52.95
2023-01-09T07:31:26.797Z,53.15
2023-01-09T07:33:56.766Z,52.87
2023-01-09T07:36:26.599Z,53.02
2023-01-09T07:38:56.416Z,52.89
2023-01-09T07:41:26.421Z,53.09
2023-01-09T07:43:56.771Z,52.96
2023-01-09T07:46:27.182Z,52.73
2023-01-09T07:48:57.263Z,52.90
2023-01-09T07:51:27.313Z,52.98
2023-01-09T07:53:57.198Z,52.87
2023-01-09T07:56:27.124Z,52.84
2023-01-09T07:58:57.133Z,52.84
2023-01-09T08:01:27.152Z,52.95
2023-01-09T08:03:57.132Z,53.08
2023-01-09T08:06:27.176Z,53.00
2023-01-09T08:08:57.139Z,53.19
2023-01-09T08:11:27.591Z,53.48
2023-01-09T08:13:57.661Z,53.31
2023-01-09T08:16:27.621Z,53.48
2023-01-09T08:18:57.516Z,53.18
2023-01-09T08:21:28.673Z,53.15
2023-01-09T08:23:58.810Z,53.23
2023-01-09T08:26:28.787Z,53.34
2023-01-09T08:28:58.871Z,53.23
2023-01-09T08:31:28.855Z,53.03
2023-01-09T08:33:58.927Z,53.25
2023-01-09T08:36:29.007Z,53.14
2023-01-09T08:38:59.259Z,53.04
2023-01-09T08:41:47.637Z,53.28
2023-01-09T08:44:35.753Z,53.33
2023-01-09T08:47:08.844Z,53.43
2023-01-09T08:49:40.952Z,53.34
2023-01-09T08:52:11.320Z,53.63
2023-01-09T08:54:42.176Z,53.55
2023-01-09T08:57:12.240Z,53.43
2023-01-09T08:59:42.077Z,53.51
2023-01-09T09:02:13.077Z,53.66
2023-01-09T09:04:43.120Z,53.63
2023-01-09T09:07:13.057Z,53.72
2023-01-09T09:09:43.156Z,53.88
2023-01-09T09:12:13.104Z,53.79
2023-01-09T09:15:01.460Z,53.63
2023-01-09T09:17:31.587Z,53.40
2023-01-09T09:20:02.686Z,53.48
2023-01-09T09:22:33.298Z,53.60
2023-01-09T09:25:03.570Z,53.66
2023-01-09T09:27:38.847Z,53.35
2023-01-09T09:30:09.928Z,53.46
2023-01-09T09:32:40.760Z,53.39
2023-01-09T09:35:11.881Z,53.56
2023-01-09T09:37:42.222Z,53.62
2023-01-09T09:40:39.987Z,53.75
2023-01-09T09:44:09.490Z,53.73
2023-01-09T09:46:42.546Z,53.71
2023-01-09T09:49:28.745Z,53.97
2023-01-09T09:52:06.858Z,53.91
2023-01-09T09:54:45.555Z,53.77
2023-01-09T09:57:20.569Z,53.92
2023-01-09T09:59:53.557Z,54.10
2023-01-09T10:02:55.252Z,53.79
2023-01-09T10:05:43.048Z,53.83
2023-01-09T10:08:51.865Z,53.90
2023-01-09T10:11:44.175Z,53.70
2023-01-09T10:14:23.816Z,54.02
2023-01-09T10:17:03.082Z,53.66
2023-01-09T10:19:36.137Z,53.78
2023-01-09T10:22:39.171Z,54.01
2023-01-09T10:25:37.560Z,54.00
2023-01-09T10:28:29.311Z,53.90
2023-01-09T10:31:07.542Z,54.11
2023-01-09T10:34:11.416Z,54.15
2023-01-09T10:36:53.472Z,54.18
2023-01-09T10:39:34.693Z,54.37
2023-01-09T10:42:10.153Z,54.08
2023-01-09T10:44:51.133Z,54.22
2023-01-09T10:47:37.137Z,54.18
2023-01-09T10:50:38.300Z,53.91
2023-01-09T10:53:23.978Z,54.04
2023-01-09T10:55:58.628Z,54.17
2023-01-09T10:58:28.757Z,54.06
2023-01-09T11:01:01.145Z,54.25
2023-01-09T11:03:32.132Z,54.21
2023-01-09T11:06:05.655Z,54.37
2023-01-09T11:08:45.197Z,54.34
2023-01-09T11:11:32.932Z,54.23
2023-01-09T11:14:33.898Z,54.39
2023-01-09T11:17:06.198Z,54.65
2023-01-09T11:19:36.494Z,54.41
2023-01-09T11:22:11.372Z,54.62
2023-01-09T11:24:41.547Z,54.56
2023-01-09T11:27:17.224Z,54.61
2023-01-09T11:29:47.451Z,54.60
2023-01-09T11:32:25.791Z,54.43
2023-01-09T11:34:55.996Z,54.31
2023-01-09T11:37:32.376Z,54.50
2023-01-09T11:40:03.889Z,54.52
2023-01-09T11:42:51.665Z,54.57
2023-01-09T11:45:26.976Z,54.46
2023-01-09T11:47:57.247Z,54.58
2023-01-09T11:50:32.784Z,54.96
2023-01-09T11:53:21.232Z,54.84
2023-01-09T11:56:06.802Z,54.99
2023-01-09T11:58:37.503Z,54.73
2023-01-09T12:01:38.269Z,54.69
2023-01-09T12:04:42.125Z,54.70
2023-01-09T12:07:26.236Z,54.68
2023-01-09T12:10:35.317Z,54.90
2023-01-09T12:13:24.724Z,55.14
2023-01-09T12:16:06.822Z,54.79
2023-01-09T12:18:48.664Z,55.11
2023-01-09T12:21:26.563Z,54.92
2023-01-09T12:24:18.199Z,54.87
2023-01-09T12:26:50.826Z,54.91
2023-01-09T12:29:41.494Z,54.88
2023-01-09T12:32:11.455Z,55.21
2023-01-09T12:35:02.673Z,55.38
2023-01-09T12:37:52.556Z,55.22
2023-01-09T12:40:47.442Z,55.13
2023-01-09T12:43:36.072Z,55.23
2023-01-09T12:46:17.966Z,55.38
2023-01-09T12:49:29.316Z,55.41
2023-01-09T12:52:25.685Z,55.29
2023-01-09T12:55:05.190Z,55.42
2023-01-09T12:57:45.288Z,55.51
2023-01-09T13:00:21.369Z,55.54
2023-01-09T13:03:11.942Z,55.54
2023-01-09T13:05:49.724Z,55.71
2023-01-09T13:08:29.075Z,55.83
2023-01-09T13:11:20.004Z,55.54
2023-01-09T13:13:57.294Z,55.67
2023-01-09T13:16:43.800Z,55.69
2023-01-09T13:19:32.096Z,55.82
2023-01-09T13:22:02.672Z,56.26
2023-01-09T13:24:43.205Z,56.21
2023-01-09T13:27:21.562Z,56.34
2023-01-09T13:29:58.091Z,56.42
2023-01-09T13:32:52.579Z,56.38
2023-01-09T13:35:22.798Z,56.41
2023-01-09T13:37:55.650Z,56.48
2023-01-09T13:40:26.656Z,56.54
2023-01-09T13:43:08.604Z,56.47
2023-01-09T13:45:40.859Z,56.84
2023-01-09T13:48:13.367Z,56.99
2023-01-09T13:50:45.585Z,57.70
2023-01-09T13:53:31.309Z,57.79
2023-01-09T13:56:11.824Z,57.91
2023-01-09T13:58:42.666Z,56.97
2023-01-09T14:01:42.070Z,58.14
2023-01-09T14:04:15.788Z,57.57
2023-01-09T14:07:21.854Z,56.97
2023-01-09T14:10:03.776Z,56.35
2023-01-09T14:12:42.910Z,56.30
2023-01-09T14:15:46.931Z,56.51
2023-01-09T14:18:29.339Z,56.32
2023-01-09T14:21:03.028Z,56.72
2023-01-09T14:23:51.612Z,56.46
2023-01-09T14:26:27.194Z,56.77
2023-01-09T14:29:35.761Z,57.21
2023-01-09T14:32:31.458Z,57.23
2023-01-09T14:35:11.122Z,57.60
2023-01-09T14:37:41.881Z,57.34
2023-01-09T14:40:38.385Z,57.22
2023-01-09T14:43:17.528Z,57.33
2023-01-09T14:46:18.510Z,57.35
2023-01-09T14:49:07.207Z,57.57
2023-01-09T14:51:44.087Z,57.91
2023-01-09T14:54:38.559Z,57.47
2023-01-09T14:57:36.368Z,57.39
2023-01-09T15:00:18.933Z,57.51
2023-01-09T15:02:50.788Z,57.60
2023-01-09T15:05:24.313Z,56.75
2023-01-09T15:08:01.499Z,57.24
2023-01-09T15:10:39.288Z,57.14
2023-01-09T15:13:16.263Z,57.25
2023-01-09T15:15:51.265Z,56.97
2023-01-09T15:18:28.501Z,57.42
2023-01-09T15:21:03.367Z,57.29
2023-01-09T15:23:34.504Z,57.16
2023-01-09T15:26:16.525Z,56.97
2023-01-09T15:28:46.739Z,57.18
2023-01-09T15:31:23.077Z,57.35
2023-01-09T15:33:54.448Z,57.32
2023-01-09T15:36:28.730Z,56.98
2023-01-09T15:38:59.453Z,56.44
2023-01-09T15:41:51.144Z,56.79
2023-01-09T15:44:28.792Z,57.35
2023-01-09T15:47:06.529Z,57.07
2023-01-09T15:49:40.555Z,57.04
2023-01-09T15:52:17.586Z,57.34
2023-01-09T15:54:49.362Z,57.22
2023-01-09T15:57:28.606Z,57.67
2023-01-09T16:00:20.067Z,57.95
2023-01-09T16:03:08.559Z,57.99
2023-01-09T16:05:53.760Z,58.24
2023-01-09T16:08:36.779Z,58.05
2023-01-09T16:11:10.877Z,57.97
2023-01-09T16:13:48.187Z,58.77
2023-01-09T16:16:34.993Z,58.24
2023-01-09T16:19:05.276Z,58.52
2023-01-09T16:21:36.984Z,58.77
2023-01-09T16:24:19.653Z,59.09
2023-01-09T16:26:50.012Z,58.72
2023-01-09T16:29:30.417Z,58.55
2023-01-09T16:32:06.882Z,58.79
2023-01-09T16:34:38.636Z,60.07
2023-01-09T16:37:08.993Z,59.22
2023-01-09T16:39:41.039Z,58.98
2023-01-09T16:42:30.662Z,59.61
2023-01-09T16:45:00.873Z,59.11
2023-01-09T16:47:31.261Z,59.93
2023-01-09T16:50:01.191Z,60.23
2023-01-09T16:52:32.369Z,60.59
2023-01-09T16:55:02.562Z,60.32
2023-01-09T16:57:33.080Z,61.26
2023-01-09T17:00:04.235Z,59.37
2023-01-09T17:02:34.500Z,59.88
2023-01-09T17:05:05.440Z,60.34
2023-01-09T17:07:36.786Z,59.83
2023-01-09T17:10:07.411Z,59.40
2023-01-09T17:12:37.627Z,59.80
2023-01-09T17:15:08.247Z,59.74
2023-01-09T17:17:38.429Z,60.05
2023-01-09T17:20:22.018Z,60.29
2023-01-09T17:22:52.236Z,60.34
2023-01-09T17:25:40.287Z,60.07
2023-01-09T17:28:36.229Z,60.74
2023-01-09T17:31:13.363Z,60.15
2023-01-09T17:33:44.606Z,60.26
2023-01-09T17:36:36.824Z,59.60
2023-01-09T17:39:07.341Z,59.67
2023-01-09T17:41:37.472Z,59.22
2023-01-09T17:44:07.941Z,59.54
2023-01-09T17:46:40.977Z,59.34
2023-01-09T17:49:19.776Z,59.64
2023-01-09T17:51:50.255Z,59.72
2023-01-09T17:54:21.343Z,59.34
2023-01-09T17:57:11.887Z,59.41
2023-01-09T17:59:42.065Z,59.33
2023-01-09T18:02:21.884Z,59.79
2023-01-09T18:04:52.178Z,59.82
2023-01-09T18:07:22.975Z,59.80
2023-01-09T18:09:53.118Z,59.35
2023-01-09T18:12:23.103Z,59.93
2023-01-09T18:14:53.946Z,59.71
2023-01-09T18:17:24.303Z,59.75
2023-01-09T18:19:54.598Z,59.25
2023-01-09T18:22:24.583Z,59.56
2023-01-09T18:24:54.838Z,59.31
2023-01-09T18:27:24.941Z,59.60
2023-01-09T18:29:55.029Z,59.55
2023-01-09T18:32:26.446Z,59.13
2023-01-09T18:34:56.686Z,59.17
2023-01-09T18:37:26.997Z,59.42
2023-01-09T18:39:57.575Z,59.67
2023-01-09T18:42:28.029Z,59.40
2023-01-09T18:44:58.250Z,59.80
2023-01-09T18:47:28.451Z,59.38
2023-01-09T18:49:58.649Z,59.90
2023-01-09T18:52:28.850Z,60.04
2023-01-09T18:54:58.969Z,59.29
2023-01-09T18:57:29.116Z,58.92
2023-01-09T18:59:59.206Z,59.18
2023-01-09T19:02:29.661Z,59.03
2023-01-09T19:04:59.853Z,59.37
2023-01-09T19:07:29.984Z,59.24
2023-01-09T19:10:00.074Z,59.66
2023-01-09T19:12:30.217Z,59.38
2023-01-09T19:15:00.316Z,59.64
2023-01-09T19:17:30.443Z,59.47
2023-01-09T19:20:00.459Z,59.93
2023-01-09T19:22:30.874Z,59.77
2023-01-09T19:25:01.037Z,60.06
2023-01-09T19:27:32.828Z,59.74
2023-01-09T19:30:03.068Z,59.84
2023-01-09T19:32:33.232Z,59.67
2023-01-09T19:35:03.390Z,59.68
2023-01-09T19:37:33.657Z,59.78
2023-01-09T19:40:03.799Z,59.61
2023-01-09T19:42:34.147Z,59.44
2023-01-09T19:45:04.475Z,59.48
2023-01-09T19:47:38.326Z,59.41
2023-01-09T19:50:10.651Z,59.40
2023-01-09T19:52:40.780Z,59.38
2023-01-09T19:55:13.503Z,59.29
2023-01-09T19:57:46.183Z,59.13
2023-01-09T20:00:17.724Z,59.41
2023-01-09T20:02:47.564Z,59.72
2023-01-09T20:05:17.806Z,59.14
2023-01-09T20:07:47.819Z,59.93
2023-01-09T20:10:18.864Z,59.44
2023-01-09T20:12:49.007Z,59.49
2023-01-09T20:15:19.066Z,59.69
2023-01-09T20:17:49.052Z,59.71
2023-01-09T20:22:46.454Z,59.60
2023-01-09T20:25:16.678Z,60.00
2023-01-09T20:27:46.686Z,59.60
2023-01-09T20:30:17.069Z,59.63
2023-01-09T20:32:49.680Z,59.17
2023-01-09T20:35:19.926Z,59.44
2023-01-09T20:37:50.175Z,59.59
2023-01-09T20:40:20.048Z,59.51
2023-01-09T20:42:49.916Z,59.18
2023-01-09T20:45:19.947Z,59.64
2023-01-09T20:47:51.454Z,59.80
2023-01-09T20:50:23.617Z,59.33
2023-01-09T20:52:54.115Z,59.19
2023-01-09T20:55:24.177Z,59.28
2023-01-09T20:57:54.262Z,59.06
2023-01-09T21:00:29.495Z,59.42
2023-01-09T21:03:00.784Z,59.14
2023-01-09T21:05:30.566Z,58.98
2023-01-09T21:08:02.494Z,59.72
2023-01-09T21:10:32.518Z,59.52
2023-01-09T21:13:02.884Z,59.52
2023-01-09T21:15:33.121Z,59.34
2023-01-09T21:18:03.037Z,59.27
2023-01-09T21:20:32.893Z,59.63
2023-01-09T21:23:02.782Z,59.42
2023-01-09T21:25:32.716Z,59.60
2023-01-09T21:28:02.661Z,59.76
2023-01-09T21:30:32.504Z,59.57
2023-01-09T21:33:05.847Z,59.68
2023-01-09T21:35:37.431Z,59.61
2023-01-09T21:38:07.472Z,59.53
2023-01-09T21:40:37.490Z,59.51
2023-01-09T21:43:42.672Z,59.72
2023-01-09T21:46:35.108Z,60.07
2023-01-09T21:49:09.126Z,60.48
2023-01-09T21:51:41.201Z,60.27
2023-01-09T21:54:11.853Z,60.25
2023-01-09T21:56:41.926Z,59.78
2023-01-09T21:59:12.427Z,59.70
2023-01-09T22:01:42.736Z,59.93
2023-01-09T22:04:16.817Z,59.76
2023-01-09T22:06:47.336Z,59.68
2023-01-09T22:09:18.168Z,59.58
2023-01-09T22:11:49.760Z,59.83
2023-01-09T22:14:21.098Z,59.61
2023-01-09T22:16:51.264Z,59.73
2023-01-09T22:19:21.274Z,59.97
2023-01-09T22:21:51.542Z,59.82
2023-01-09T22:24:23.843Z,60.14
2023-01-09T22:26:53.998Z,60.37
2023-01-09T22:29:24.525Z,60.85
2023-01-09T22:31:54.677Z,60.13
2023-01-09T22:34:24.916Z,60.20
2023-01-09T22:36:55.259Z,60.35
2023-01-09T22:39:25.843Z,60.30
2023-01-09T22:41:57.351Z,60.85
2023-01-09T22:44:28.548Z,60.77
2023-01-09T22:47:59.166Z,61.01
2023-01-09T22:50:30.558Z,60.62
2023-01-09T22:53:00.770Z,60.49
2023-01-09T22:55:30.920Z,60.47
2023-01-09T22:58:00.896Z,60.69
2023-01-09T23:00:31.773Z,61.01
2023-01-09T23:03:01.868Z,60.93
2023-01-09T23:05:31.940Z,60.92
2023-01-09T23:08:02.655Z,60.84
2023-01-09T23:10:32.743Z,60.73
2023-01-09T23:13:02.640Z,60.92
2023-01-09T23:15:33.884Z,61.61
2023-01-09T23:18:03.568Z,61.72
2023-01-09T23:20:33.473Z,61.75
2023-01-09T23:23:04.314Z,61.76
2023-01-09T23:25:35.448Z,61.79
2023-01-09T23:28:05.590Z,61.26
2023-01-09T23:30:35.759Z,61.42
2023-01-09T23:33:05.919Z,61.55
2023-01-09T23:35:37.190Z,61.34
2023-01-09T23:38:07.203Z,61.51
2023-01-09T23:40:41.830Z,61.21
2023-01-09T23:43:17.260Z,61.46
2023-01-09T23:45:48.683Z,61.53
2023-01-09T23:48:20.520Z,61.77
2023-01-09T23:50:56.041Z,61.59
2023-01-09T23:53:26.479Z,61.82
2023-01-09T23:55:57.476Z,61.52
2023-01-09T23:58:28.790Z,61.86
